createdAt,value
2023-01-27T00:00:19.755Z,3.30
2023-01-27T00:03:09.035Z,3.40
2023-01-27T00:05:58.683Z,3.40
2023-01-27T00:08:47.296Z,3.40
2023-01-27T00:11:53.548Z,3.50
2023-01-27T00:14:43.593Z,3.30
2023-01-27T00:17:32.386Z,3.30
2023-01-27T00:20:42.899Z,3.40
2023-01-27T00:23:49.325Z,3.50
2023-01-27T00:26:38.054Z,3.50
2023-01-27T00:29:26.712Z,3.40
2023-01-27T00:32:34.000Z,3.40
2023-01-27T00:35:22.880Z,3.40
2023-01-27T00:38:11.512Z,3.40
2023-01-27T00:41:20.597Z,3.50
2023-01-27T00:44:13.184Z,3.50
2023-01-27T00:47:02.527Z,3.40
2023-01-27T00:49:53.179Z,3.30
2023-01-27T00:52:41.921Z,3.20
2023-01-27T00:55:31.455Z,3.20
2023-01-27T00:58:22.501Z,3.20
2023-01-27T01:01:14.759Z,3.10
2023-01-27T01:04:03.753Z,3.10
2023-01-27T01:06:54.539Z,3.30
2023-01-27T01:09:43.177Z,3.20
2023-01-27T01:12:31.877Z,3.30
2023-01-27T01:15:20.566Z,3.50
2023-01-27T01:18:10.528Z,3.30
2023-01-27T01:20:59.212Z,3.20
2023-01-27T01:23:49.591Z,3.30
2023-01-27T01:26:38.344Z,3.20
2023-01-27T01:29:27.650Z,3.30
2023-01-27T01:32:16.240Z,3.20
2023-01-27T01:35:05.717Z,3.20
2023-01-27T01:37:54.839Z,3.10
2023-01-27T01:40:45.675Z,3.10
2023-01-27T01:43:35.224Z,3.20
2023-01-27T01:46:23.959Z,3.20
2023-01-27T01:49:12.795Z,3.20
2023-01-27T01:52:06.947Z,3.40
2023-01-27T01:54:58.580Z,3.30
2023-01-27T01:57:49.001Z,3.30
2023-01-27T02:00:38.353Z,3.30
2023-01-27T02:03:32.241Z,3.30
2023-01-27T02:06:21.789Z,3.30
2023-01-27T02:09:12.154Z,3.30
2023-01-27T02:12:01.646Z,3.30
2023-01-27T02:14:52.169Z,3.40
2023-01-27T02:17:43.614Z,3.30
2023-01-27T02:20:38.471Z,3.20
2023-01-27T02:23:38.214Z,3.30
2023-01-27T02:26:32.344Z,3.20
2023-01-27T02:29:22.942Z,3.10
2023-01-27T02:32:24.415Z,3.20
2023-01-27T02:35:20.864Z,3.10
2023-01-27T02:38:12.825Z,3.20
2023-01-27T02:41:06.131Z,3.30
2023-01-27T02:43:57.058Z,3.40
2023-01-27T02:46:45.820Z,3.30
2023-01-27T02:49:34.981Z,3.30
2023-01-27T02:52:24.455Z,3.30
2023-01-27T02:55:14.880Z,3.30
2023-01-27T02:58:03.778Z,3.40
2023-01-27T03:01:01.461Z,3.40
2023-01-27T03:03:51.391Z,3.20
2023-01-27T03:06:41.241Z,3.50
2023-01-27T03:09:31.415Z,3.30
2023-01-27T03:12:23.044Z,3.30
2023-01-27T03:15:30.417Z,3.30
2023-01-27T03:18:21.355Z,3.40
2023-01-27T03:21:11.510Z,3.50
2023-01-27T03:24:00.576Z,3.30
2023-01-27T03:26:49.600Z,3.30
2023-01-27T03:29:58.411Z,3.40
2023-01-27T03:32:51.887Z,3.40
2023-01-27T03:36:32.324Z,3.40
2023-01-27T03:39:38.324Z,3.50
2023-01-27T03:42:44.507Z,3.50
2023-01-27T03:45:50.473Z,3.50
2023-01-27T03:48:39.577Z,3.30
2023-01-27T03:51:30.147Z,3.40
2023-01-27T03:54:18.781Z,3.40
2023-01-27T03:57:07.502Z,3.40
2023-01-27T04:00:01.631Z,3.30
2023-01-27T04:03:07.834Z,3.40
2023-01-27T04:06:14.124Z,3.50
2023-01-27T04:09:06.249Z,3.50
2023-01-27T04:11:56.308Z,3.60
2023-01-27T04:14:45.467Z,3.50
2023-01-27T04:17:38.937Z,3.60
2023-01-27T04:20:27.706Z,3.60
2023-01-27T04:23:16.359Z,3.70
2023-01-27T04:26:06.678Z,3.70
2023-01-27T04:28:55.340Z,3.70
2023-01-27T04:31:44.260Z,3.50
2023-01-27T04:34:33.431Z,3.60
2023-01-27T04:37:22.254Z,3.70
2023-01-27T04:40:12.318Z,3.60
2023-01-27T04:43:02.549Z,3.60
2023-01-27T04:45:51.334Z,3.60
2023-01-27T04:48:39.949Z,3.60
2023-01-27T04:51:28.901Z,3.50
2023-01-27T04:54:17.541Z,3.30
2023-01-27T04:57:06.195Z,3.20
2023-01-27T04:59:56.670Z,3.30
2023-01-27T05:02:46.182Z,3.40
2023-01-27T05:05:34.814Z,3.40
2023-01-27T05:08:23.421Z,3.50
2023-01-27T05:11:13.162Z,3.30
2023-01-27T05:14:02.136Z,3.20
2023-01-27T05:16:55.843Z,3.10
2023-01-27T05:19:44.610Z,3.20
2023-01-27T05:22:33.289Z,3.30
2023-01-27T05:25:21.909Z,3.20
2023-01-27T05:28:10.759Z,3.20
2023-01-27T05:31:03.543Z,3.10
2023-01-27T05:33:55.223Z,3.10
2023-01-27T05:36:43.899Z,3.00
2023-01-27T05:39:32.883Z,3.00
2023-01-27T05:42:21.713Z,3.00
2023-01-27T05:45:11.485Z,3.10
2023-01-27T05:48:00.140Z,3.20
2023-01-27T05:51:00.462Z,3.30
2023-01-27T05:53:49.173Z,3.20
2023-01-27T05:56:37.976Z,3.20
2023-01-27T05:59:26.697Z,3.20
2023-01-27T06:02:15.761Z,3.00
2023-01-27T06:05:04.771Z,3.00
2023-01-27T06:07:56.825Z,3.10
2023-01-27T06:10:46.572Z,3.20
2023-01-27T06:13:36.114Z,3.20
2023-01-27T06:16:25.271Z,3.10
2023-01-27T06:19:14.005Z,3.30
2023-01-27T06:22:03.167Z,3.40
2023-01-27T06:24:53.119Z,3.10
2023-01-27T06:27:41.768Z,3.10
2023-01-27T06:30:31.253Z,2.90
2023-01-27T06:33:19.995Z,3.00
2023-01-27T06:36:11.328Z,3.00
2023-01-27T06:39:00.142Z,3.00
2023-01-27T06:41:51.020Z,2.70
2023-01-27T06:44:39.640Z,2.90
2023-01-27T06:47:30.665Z,2.90
2023-01-27T06:50:22.971Z,2.90
2023-01-27T06:53:11.982Z,2.80
2023-01-27T06:56:02.433Z,2.80
2023-01-27T06:58:52.570Z,2.70
2023-01-27T07:01:41.233Z,2.70
2023-01-27T07:04:31.193Z,2.60
2023-01-27T07:07:20.033Z,2.50
2023-01-27T07:10:10.208Z,2.60
2023-01-27T07:13:07.052Z,2.70
2023-01-27T07:15:57.798Z,2.70
2023-01-27T07:18:46.492Z,2.70
2023-01-27T07:21:35.340Z,2.50
2023-01-27T07:24:24.176Z,2.40
2023-01-27T07:27:12.793Z,2.50
2023-01-27T07:30:01.562Z,2.60
2023-01-27T07:32:55.462Z,2.90
2023-01-27T07:35:44.251Z,2.70
2023-01-27T07:38:33.488Z,2.80
2023-01-27T07:41:23.135Z,2.90
2023-01-27T07:44:12.003Z,3.10
2023-01-27T07:47:01.469Z,3.00
2023-01-27T07:49:51.603Z,2.90
2023-01-27T07:52:40.151Z,3.00
2023-01-27T07:55:29.118Z,3.00
2023-01-27T07:58:17.891Z,3.20
2023-01-27T08:01:08.121Z,3.20
2023-01-27T08:03:56.810Z,3.40
2023-01-27T08:06:47.138Z,3.10
2023-01-27T08:09:35.829Z,3.10
2023-01-27T08:12:24.683Z,3.40
2023-01-27T08:15:14.780Z,3.50
2023-01-27T08:18:04.131Z,3.00
2023-01-27T08:20:54.552Z,3.10
2023-01-27T08:23:44.656Z,3.20
2023-01-27T08:26:33.315Z,3.10
2023-01-27T08:29:22.005Z,3.20
2023-01-27T08:32:13.481Z,3.20
2023-01-27T08:35:03.579Z,3.10
2023-01-27T08:37:52.453Z,3.10
2023-01-27T08:40:43.301Z,3.10
2023-01-27T08:43:32.493Z,3.20
2023-01-27T08:46:21.245Z,3.20
2023-01-27T08:49:09.907Z,3.50
2023-01-27T08:51:58.641Z,3.30
2023-01-27T08:54:47.337Z,3.10
2023-01-27T08:57:37.961Z,3.20
2023-01-27T09:00:27.230Z,3.10
2023-01-27T09:03:15.918Z,3.60
2023-01-27T09:06:05.082Z,3.40
2023-01-27T09:09:09.429Z,3.60
2023-01-27T09:12:00.052Z,3.70
2023-01-27T09:14:50.054Z,3.70
2023-01-27T09:17:38.826Z,3.70
2023-01-27T09:20:27.464Z,3.60
2023-01-27T09:23:16.135Z,3.80
2023-01-27T09:26:04.796Z,3.70
2023-01-27T09:28:53.486Z,3.60
2023-01-27T09:31:43.669Z,3.70
2023-01-27T09:34:32.898Z,3.90
2023-01-27T09:37:21.635Z,4.30
2023-01-27T09:40:19.689Z,4.30
2023-01-27T09:43:33.741Z,4.30
2023-01-27T09:47:00.037Z,4.50
2023-01-27T09:50:06.623Z,4.40
2023-01-27T09:53:26.906Z,4.70
2023-01-27T09:56:23.829Z,4.70
2023-01-27T09:59:25.161Z,4.80
2023-01-27T10:02:29.192Z,5.00
2023-01-27T10:05:41.481Z,4.80
2023-01-27T10:08:54.827Z,4.70
2023-01-27T10:11:52.886Z,4.60
2023-01-27T10:14:49.489Z,5.10
2023-01-27T10:17:48.167Z,5.00
2023-01-27T10:20:42.986Z,4.80
2023-01-27T10:23:43.655Z,4.80
2023-01-27T10:26:37.160Z,4.80
2023-01-27T10:29:27.309Z,4.90
2023-01-27T10:32:26.826Z,4.90
2023-01-27T10:35:21.085Z,4.60
2023-01-27T10:38:18.621Z,4.20
2023-01-27T10:41:20.006Z,4.30
2023-01-27T10:44:38.603Z,4.50
2023-01-27T10:47:43.561Z,4.60
2023-01-27T10:50:38.844Z,4.80
2023-01-27T10:53:33.807Z,4.10
2023-01-27T10:56:32.722Z,4.10
2023-01-27T10:59:28.675Z,3.80
2023-01-27T11:02:26.578Z,3.90
2023-01-27T11:05:20.075Z,4.20
2023-01-27T11:08:17.595Z,4.30
2023-01-27T11:11:27.298Z,4.00
2023-01-27T11:14:20.211Z,4.00
2023-01-27T11:17:17.280Z,3.90
2023-01-27T11:20:13.927Z,3.90
2023-01-27T11:23:12.082Z,3.70
2023-01-27T11:26:08.755Z,3.70
2023-01-27T11:29:09.764Z,4.00
2023-01-27T11:32:05.158Z,3.70
2023-01-27T11:35:03.165Z,3.70
2023-01-27T11:38:00.653Z,3.90
2023-01-27T11:40:55.919Z,3.80
2023-01-27T11:43:46.510Z,3.50
2023-01-27T11:46:36.448Z,3.80
2023-01-27T11:49:28.716Z,3.70
2023-01-27T11:52:21.177Z,3.70
2023-01-27T11:55:17.945Z,3.70
2023-01-27T11:58:14.943Z,3.70
2023-01-27T12:01:11.176Z,3.60
2023-01-27T12:04:04.887Z,3.60
2023-01-27T12:06:57.972Z,3.70
2023-01-27T12:09:46.735Z,3.90
2023-01-27T12:12:39.164Z,4.10
2023-01-27T12:15:31.251Z,3.60
2023-01-27T12:18:23.726Z,3.70
2023-01-27T12:21:12.816Z,3.80
2023-01-27T12:24:02.518Z,3.80
2023-01-27T12:26:54.902Z,3.90
2023-01-27T12:29:48.782Z,4.10
2023-01-27T12:32:41.739Z,4.20
2023-01-27T12:35:35.975Z,4.20
2023-01-27T12:38:27.676Z,4.10
2023-01-27T12:41:23.977Z,4.00
2023-01-27T12:44:18.398Z,4.00
2023-01-27T12:47:24.769Z,3.60
2023-01-27T12:50:24.701Z,3.70
2023-01-27T12:53:16.432Z,3.90
2023-01-27T12:56:13.367Z,3.90
2023-01-27T12:59:03.812Z,3.60
2023-01-27T13:02:01.856Z,3.60
2023-01-27T13:04:54.341Z,3.70
2023-01-27T13:07:46.748Z,3.60
2023-01-27T13:10:37.047Z,3.40
2023-01-27T13:13:28.004Z,3.30
2023-01-27T13:16:29.685Z,3.30
2023-01-27T13:19:20.178Z,3.40
2023-01-27T13:22:11.540Z,3.70
2023-01-27T13:25:03.338Z,3.90
2023-01-27T13:27:59.234Z,3.90
2023-01-27T13:30:52.600Z,3.90
2023-01-27T13:33:48.043Z,3.90
2023-01-27T13:36:41.626Z,3.70
2023-01-27T13:39:44.272Z,3.50
2023-01-27T13:42:41.141Z,3.30
2023-01-27T13:45:40.341Z,3.40
2023-01-27T13:48:34.088Z,3.50
2023-01-27T13:51:25.206Z,3.80
2023-01-27T13:54:16.771Z,3.50
2023-01-27T13:57:36.985Z,3.30
2023-01-27T14:00:33.813Z,3.20
2023-01-27T14:04:06.128Z,3.30
2023-01-27T14:07:03.773Z,3.30
2023-01-27T14:10:05.105Z,3.40
2023-01-27T14:13:08.504Z,3.40
2023-01-27T14:16:08.732Z,3.40
2023-01-27T14:19:03.829Z,3.40
2023-01-27T14:21:58.316Z,3.20
2023-01-27T14:24:53.985Z,3.20
2023-01-27T14:27:47.887Z,3.20
2023-01-27T14:30:41.529Z,3.00
2023-01-27T14:33:44.713Z,3.20
2023-01-27T14:36:41.581Z,3.00
2023-01-27T14:39:40.203Z,3.00
2023-01-27T14:42:37.503Z,3.10
2023-01-27T14:45:30.280Z,2.90
2023-01-27T14:48:41.792Z,3.00
2023-01-27T14:51:40.229Z,3.00
2023-01-27T14:54:53.725Z,3.20
2023-01-27T14:57:53.244Z,3.10
2023-01-27T15:00:50.489Z,3.20
2023-01-27T15:04:08.959Z,3.20
2023-01-27T15:07:07.387Z,3.20
2023-01-27T15:10:07.312Z,3.40
2023-01-27T15:13:39.710Z,3.30
2023-01-27T15:16:39.578Z,3.00
2023-01-27T15:19:48.787Z,2.80
2023-01-27T15:23:03.073Z,2.70
2023-01-27T15:25:55.115Z,2.60
2023-01-27T15:28:45.678Z,2.80
2023-01-27T15:31:34.938Z,3.00
2023-01-27T15:34:24.614Z,3.20
2023-01-27T15:37:23.779Z,3.40
2023-01-27T15:40:18.595Z,2.90
2023-01-27T15:43:15.528Z,3.00
2023-01-27T15:46:25.394Z,3.00
2023-01-27T15:49:20.644Z,3.10
2023-01-27T15:52:26.426Z,2.90
2023-01-27T15:55:28.816Z,3.00
2023-01-27T15:58:28.801Z,3.00
2023-01-27T16:01:27.818Z,3.10
2023-01-27T16:04:19.439Z,3.30
2023-01-27T16:07:23.161Z,3.10
2023-01-27T16:10:21.260Z,3.00
2023-01-27T16:13:28.165Z,2.90
2023-01-27T16:16:36.261Z,2.90
2023-01-27T16:19:30.507Z,2.70
2023-01-27T16:22:20.840Z,2.80
2023-01-27T16:25:22.851Z,2.90
2023-01-27T16:28:19.404Z,3.00
2023-01-27T16:31:17.616Z,3.00
2023-01-27T16:34:16.195Z,2.90
2023-01-27T16:37:16.751Z,2.70
2023-01-27T16:40:09.658Z,2.80
2023-01-27T16:43:03.429Z,2.80
2023-01-27T16:45:54.112Z,2.80
2023-01-27T16:48:48.062Z,2.70
2023-01-27T16:51:36.807Z,2.60
2023-01-27T16:54:27.941Z,2.60
2023-01-27T16:57:30.382Z,2.60
2023-01-27T17:00:23.015Z,2.70
2023-01-27T17:03:16.932Z,2.90
2023-01-27T17:06:10.340Z,3.10
2023-01-27T17:08:59.188Z,2.90
2023-01-27T17:11:47.866Z,2.90
2023-01-27T17:14:38.563Z,2.90
2023-01-27T17:17:29.001Z,2.70
2023-01-27T17:20:31.172Z,2.80
2023-01-27T17:23:31.633Z,2.70
2023-01-27T17:26:21.077Z,2.60
2023-01-27T17:29:18.416Z,2.80
2023-01-27T17:32:21.703Z,2.80
2023-01-27T17:35:23.038Z,2.70
2023-01-27T17:38:16.615Z,2.70
2023-01-27T17:41:23.791Z,2.60
2023-01-27T17:44:15.060Z,2.80
2023-01-27T17:47:04.324Z,2.50
2023-01-27T17:49:53.077Z,2.50
2023-01-27T17:52:52.186Z,2.10
2023-01-27T17:55:41.921Z,2.20
2023-01-27T17:58:45.111Z,2.20
2023-01-27T18:01:34.701Z,2.10
2023-01-27T18:04:28.389Z,2.20
2023-01-27T18:07:17.585Z,2.40
2023-01-27T18:10:24.980Z,2.50
2023-01-27T18:13:34.651Z,2.50
2023-01-27T18:16:26.287Z,2.60
2023-01-27T18:19:23.045Z,2.80
2023-01-27T18:22:15.230Z,2.90
2023-01-27T18:25:04.842Z,2.90
2023-01-27T18:27:55.336Z,2.70
2023-01-27T18:30:48.815Z,2.70
2023-01-27T18:33:40.466Z,2.90
2023-01-27T18:36:35.379Z,2.80
2023-01-27T18:39:36.039Z,2.80
2023-01-27T18:42:26.028Z,2.80
2023-01-27T18:45:19.066Z,3.00
2023-01-27T18:48:11.571Z,3.10
2023-01-27T18:51:01.811Z,2.80
2023-01-27T18:53:50.550Z,2.80
2023-01-27T18:56:39.254Z,2.80
2023-01-27T18:59:27.917Z,2.90
2023-01-27T19:02:17.659Z,2.80
2023-01-27T19:05:15.999Z,2.90
2023-01-27T19:08:07.239Z,2.70
2023-01-27T19:10:56.092Z,2.60
2023-01-27T19:13:45.314Z,2.70
2023-01-27T19:16:34.469Z,2.80
2023-01-27T19:19:23.235Z,2.70
2023-01-27T19:22:15.313Z,2.60
2023-01-27T19:25:05.987Z,2.70
2023-01-27T19:27:58.616Z,2.70
2023-01-27T19:30:48.573Z,2.40
2023-01-27T19:33:38.698Z,2.50
2023-01-27T19:36:31.302Z,2.40
2023-01-27T19:39:21.067Z,2.50
2023-01-27T19:42:14.654Z,2.50
2023-01-27T19:45:07.270Z,2.60
2023-01-27T19:48:00.035Z,2.60
2023-01-27T19:50:49.972Z,2.60
2023-01-27T19:53:39.169Z,2.70
2023-01-27T19:56:33.664Z,2.70
2023-01-27T19:59:23.741Z,2.60
2023-01-27T20:02:14.218Z,2.50
2023-01-27T20:05:03.102Z,2.80
2023-01-27T20:07:53.638Z,2.80
2023-01-27T20:10:42.386Z,2.70
2023-01-27T20:13:32.231Z,3.00
2023-01-27T20:16:26.895Z,3.10
2023-01-27T20:19:16.409Z,2.90
2023-01-27T20:22:05.148Z,2.80
2023-01-27T20:24:53.929Z,3.10
2023-01-27T20:27:43.748Z,2.80
2023-01-27T20:30:35.233Z,2.80
2023-01-27T20:33:25.303Z,3.00
2023-01-27T20:36:19.379Z,3.10
2023-01-27T20:39:08.244Z,3.00
2023-01-27T20:41:56.934Z,2.90
2023-01-27T20:44:45.730Z,2.80
2023-01-27T20:47:34.428Z,2.90
2023-01-27T20:50:26.260Z,2.80
2023-01-27T20:53:15.019Z,2.80
2023-01-27T20:56:04.809Z,2.60
2023-01-27T20:58:54.355Z,2.30
2023-01-27T21:01:44.782Z,2.30
2023-01-27T21:04:33.490Z,2.40
2023-01-27T21:07:24.462Z,2.30
2023-01-27T21:10:13.401Z,2.30
2023-01-27T21:13:02.409Z,2.40
2023-01-27T21:15:51.579Z,2.40
2023-01-27T21:18:40.220Z,2.20
2023-01-27T21:21:31.379Z,2.20
2023-01-27T21:24:24.682Z,2.20
2023-01-27T21:27:13.705Z,2.30
2023-01-27T21:30:02.620Z,2.10
2023-01-27T21:32:51.417Z,2.30
2023-01-27T21:35:40.391Z,2.50
2023-01-27T21:38:29.288Z,2.30
2023-01-27T21:41:45.980Z,2.40
2023-01-27T21:44:52.027Z,2.10
2023-01-27T21:47:40.675Z,2.30
2023-01-27T21:50:29.883Z,2.10
2023-01-27T21:53:18.550Z,2.30
2023-01-27T21:56:07.922Z,2.20
2023-01-27T21:58:58.651Z,2.40
2023-01-27T22:01:47.526Z,2.40
2023-01-27T22:04:36.231Z,2.30
2023-01-27T22:07:26.692Z,2.20
2023-01-27T22:10:17.343Z,2.20
2023-01-27T22:13:08.310Z,2.20
2023-01-27T22:15:58.491Z,2.10
2023-01-27T22:18:50.185Z,2.00
2023-01-27T22:21:38.982Z,2.00
2023-01-27T22:24:27.781Z,2.10
2023-01-27T22:27:16.460Z,2.20
2023-01-27T22:30:05.960Z,2.30
2023-01-27T22:32:56.030Z,2.40
2023-01-27T22:35:44.972Z,2.50
2023-01-27T22:38:37.975Z,2.50
2023-01-27T22:41:26.584Z,2.50
2023-01-27T22:44:16.088Z,2.50
2023-01-27T22:47:05.734Z,2.40
2023-01-27T22:49:55.806Z,2.40
2023-01-27T22:52:44.508Z,2.50
2023-01-27T22:55:33.236Z,2.50
2023-01-27T22:58:22.047Z,2.30
2023-01-27T23:01:11.162Z,2.30
2023-01-27T23:04:00.017Z,2.30
2023-01-27T23:06:50.082Z,2.60
2023-01-27T23:09:38.979Z,2.70
2023-01-27T23:12:27.642Z,2.80
2023-01-27T23:15:16.855Z,2.90
2023-01-27T23:18:11.425Z,2.90
2023-01-27T23:21:05.012Z,2.40
2023-01-27T23:23:55.620Z,2.40
2023-01-27T23:26:44.652Z,2.60
2023-01-27T23:29:33.324Z,2.70
2023-01-27T23:32:22.005Z,2.70
2023-01-27T23:35:14.267Z,2.90
2023-01-27T23:38:03.631Z,3.00
2023-01-27T23:40:55.302Z,2.50
2023-01-27T23:43:43.910Z,2.60
2023-01-27T23:46:32.900Z,2.50
2023-01-27T23:49:21.757Z,2.40
2023-01-27T23:52:10.583Z,2.70
2023-01-27T23:54:59.295Z,2.50
2023-01-27T23:57:49.353Z,2.40
